• Join FlightAware (Why Join?)
  • Login
  • US Flag 
08:47PM EST


 

Airport Tracker/Info


-or-


 

Live Flight TrackerFlight Track Log ✈ CHQ6101 ✈ 22-Apr-2014 ✈ KLGA - KBGR

Flight Track Log - Related Links

Times and Time Zones

All times are in EDT time to prevent confusion due to time zone crossing. See the CHQ6101 flight status page for this flight to view local times or setup timezone preferences in your user account.

Time Position Orientation Groundspeed Altitude Reporting Facility
EDT Latitude Longitude Course Direction KTS MPH feet Rate Location/Type
02:48PM 40.7667 -73.8500 27° Northeast 162 186 1,300  Level New York TRACON
02:49PM 40.7500 -73.7833 108° East 230 265 3,300 1,860 Climbing New York TRACON
02:51PM 40.8253 -73.6953 42° Northeast 263 303 6,300 2,100 Climbing Boston Center
02:52PM 41.1449 -73.5733 33° Northeast  Level FlightAware Approximate
02:52PM 40.9144 -73.6425 24° Northeast 287 330 9,000  Level Boston Center
02:53PM 41.2367 -73.4929 33° Northeast  Level FlightAware Approximate
02:53PM 40.9928 -73.5981 23° Northeast 300 345 10,800  Level Boston Center
02:54PM 41.3330 -73.4225 27° Northeast  Level FlightAware Approximate
02:54PM 41.0778 -73.5483 24° Northeast 328 377 12,700  Level Boston Center
02:55PM 41.1750 -73.4922 23° Northeast 352 405 13,900 1,140 Climbing Boston Center
02:56PM 41.2719 -73.4364 23° Northeast 372 428 15,100 1,260 Climbing Boston Center
02:57PM 41.3681 -73.3792 24° Northeast 378 435 16,500 1,140 Climbing Boston Center
02:58PM 41.4719 -73.3172 24° Northeast 386 444 17,500 1,200 Climbing Boston Center
02:59PM 41.5553 -73.2142 43° Northeast 408 470 19,000 1,260 Climbing Boston Center
03:00PM 41.6392 -73.1283 37° Northeast 407 468 20,200 1,260 Climbing Boston Center
03:01PM 41.7489 -73.1250 North 397 457 21,600 1,380 Climbing Boston Center
03:02PM 41.8553 -73.1433 353° North 389 448 23,100 1,440 Climbing Boston Center
03:03PM 41.9628 -73.1625 352° North 388 447 24,600 1,260 Climbing Boston Center
03:04PM 42.0703 -73.1814 353° North 388 447 25,800 1,140 Climbing Boston Center
03:05PM 42.2028 -73.2014 354° North 395 455 27,000 1,080 Climbing Boston Center
03:06PM 42.3056 -73.1328 26° Northeast 424 488 28,100 1,020 Climbing Boston Center
03:07PM 42.3819 -73.0103 50° Northeast 429 494 29,100 960 Climbing Boston Center
03:08PM 42.4575 -72.8881 50° Northeast 429 494 30,100 900 Climbing Boston Center
03:09PM 42.5369 -72.7603 50° Northeast 437 503 31,000 420 Climbing Boston Center
03:10PM 42.6258 -72.6167 50° Northeast 459 528 31,000  Level Boston Center
03:11PM 42.7128 -72.4750 50° Northeast 484 557 31,000  Level Boston Center
03:12PM 42.8019 -72.3297 50° Northeast 494 568 31,000  Level Boston Center
03:13PM 42.8950 -72.1733 51° Northeast 502 578 31,000  Level Boston Center
03:15PM 42.9856 -72.0256 50° Northeast 504 580 31,000  Level Boston Center
03:16PM 43.0753 -71.8764 51° Northeast 507 583 31,000  Level Boston Center
03:17PM 43.1633 -71.7278 51° Northeast 506 582 31,000  Level Boston Center
03:18PM 43.2528 -71.5778 51° Northeast 506 582 31,000  Level Boston Center
03:19PM 43.3406 -71.4267 51° Northeast 507 583 31,000  Level Boston Center
03:20PM 43.4300 -71.2772 50° Northeast 507 583 31,000  Level Boston Center
03:21PM 43.5347 -71.0956 51° Northeast 507 583 31,000 -120 Level Boston Center
03:22PM 43.6228 -70.9453 51° Northeast 507 583 30,800 -840 Descending Boston Center
03:23PM 43.7150 -70.7833 52° Northeast 504 580 29,400 -1,620 Descending Boston Center
03:24PM 43.8025 -70.6342 51° Northeast 500 575 27,500 -2,220 Descending Boston Center
03:25PM 43.8858 -70.4892 51° Northeast 483 556 24,900 -2,700 Descending Boston Center
03:26PM 43.9667 -70.3486 51° Northeast 467 537 22,100 -2,760 Descending Boston Center
03:27PM 44.0433 -70.2097 52° Northeast 459 528 19,300 -3,000 Descending Boston Center
03:28PM 44.1181 -70.0797 51° Northeast 421 484 16,100 -2,940 Descending Boston Center
03:29PM 44.1864 -69.9594 52° Northeast 400 460 13,300 -2,460 Descending Boston Center
03:30PM 44.2586 -69.8297 52° Northeast 396 456 11,100 -1,140 Descending Boston Center
03:31PM 44.3269 -69.7072 52° Northeast 401 461 11,000 -60 Descending Boston Center
03:32PM 44.3867 -69.5994 52° Northeast 390 449 11,000  Level Boston Center
03:33PM 44.4617 -69.4900 46° Northeast 391 450 11,000 -540 Level Boston Center
03:34PM 44.5314 -69.4028 42° Northeast 350 403 9,900 -1,560 Descending Boston Center
03:35PM 44.6061 -69.3069 42° Northeast 312 359 7,900 -1,800 Descending Boston Center
03:36PM 44.6644 -69.2314 43° Northeast 295 339 6,300 -1,560 Descending Boston Center
03:37PM 44.7206 -69.1572 43° Northeast 284 327 4,800 -1,380 Descending Boston Center
03:38PM 44.7753 -69.0850 43° Northeast 276 318 3,500 -1,140 Descending Boston Center
03:39PM 44.8269 -69.0167 43° Northeast 259 298 2,500 -840 Descending Boston Center
03:40PM 44.8517 -68.9511 62° Northeast 211 243 1,800 -720 Descending Boston Center
03:41PM 44.8478 -68.8944 96° East 168 193 1,100 -720 Descending Boston Center
03:42PM 44.8228 -68.8508 129° Southeast 151 174 400 -480 Descending Boston Center
03:43PM 44.7942 -68.8128 137° Southeast 150 173 200 -240 Descending Boston Center